Time;durP1;ratioP1;P1;durP2;ratioP2;P2;SDS_P1;SDS_P2;PMS_P1;PMS_P2;Temp;Humidity;BMP_temperature;BMP_pressure;BME280_temperature;BME280_humidity;BME280_pressure;Samples;Min_cycle;Max_cycle;Signal;HPM_P1;HPM_P2
2021/08/24 00:02:08;;;;;;;19.60;10.47;;;;;;;;;;5087916;28;20227;-77
2021/08/24 00:04:35;;;;;;;15.73;10.10;;;;;;;;;;5084918;28;20226;-77
2021/08/24 00:07:03;;;;;;;15.70;10.00;;;;;;;;;;5091253;28;20646;-77
2021/08/24 00:09:30;;;;;;;20.03;10.70;;;;;;;;;;5088324;28;20233;-77
2021/08/24 00:11:57;;;;;;;17.30;10.23;;;;;;;;;;5092703;28;20200;-77
2021/08/24 00:14:24;;;;;;;19.13;10.23;;;;;;;;;;5092841;28;20233;-77
2021/08/24 00:16:53;;;;;;;15.50;10.07;;;;;;;;;;5081175;28;20289;-77
2021/08/24 00:19:20;;;;;;;17.67;10.40;;;;;;;;;;5080713;28;20326;-77
2021/08/24 00:21:47;;;;;;;13.80;9.53;;;;;;;;;;5091204;28;20729;-77
2021/08/24 00:24:15;;;;;;;13.13;9.23;;;;;;;;;;5088667;28;20294;-77
2021/08/24 00:26:42;;;;;;;16.73;10.10;;;;;;;;;;5072029;28;20281;-77
2021/08/24 00:29:09;;;;;;;17.33;10.10;;;;;;;;;;5079258;28;20561;-78
2021/08/24 00:31:36;;;;;;;15.27;10.00;;;;;;;;;;5091320;28;20233;-77
2021/08/24 00:34:05;;;;;;;15.63;9.87;;;;;;;;;;5090952;28;20198;-77
2021/08/24 00:36:33;;;;;;;16.67;10.33;;;;;;;;;;5081077;28;20297;-77
2021/08/24 00:39:00;;;;;;;15.50;10.77;;;;;;;;;;5091268;28;20631;-78
2021/08/24 00:41:28;;;;;;;17.23;10.97;;;;;;;;;;5077467;28;20199;-78
2021/08/24 00:43:56;;;;;;;17.87;10.77;;;;;;;;;;5075533;28;20582;-77
2021/08/24 00:46:29;;;;;;;15.67;10.67;;;;;;;;;;5080430;28;20294;-78
2021/08/24 00:48:57;;;;;;;14.93;10.57;;;;;;;;;;5075571;28;20226;-77
2021/08/24 00:51:26;;;;;;;17.83;11.37;;;;;;;;;;5095361;28;20289;-77
2021/08/24 00:53:53;;;;;;;15.20;11.07;;;;;;;;;;5075335;28;20203;-77
2021/08/24 00:56:21;;;;;;;18.70;11.23;;;;;;;;;;5087188;28;20308;-77
2021/08/24 00:58:48;;;;;;;16.33;10.90;;;;;;;;;;5078438;28;20277;-77
2021/08/24 01:01:15;;;;;;;16.10;10.97;;;;;;;;;;5084873;28;20285;-77
2021/08/24 01:03:43;;;;;;;16.93;11.40;;;;;;;;;;5093986;28;20289;-77
2021/08/24 01:06:15;;;;;;;17.13;10.90;;;;;;;;;;5082882;28;20210;-77
2021/08/24 01:08:49;;;;;;;18.03;11.60;;;;;;;;;;5092132;28;20301;-77
2021/08/24 01:11:20;;;;;;;16.77;11.10;;;;;;;;;;5086227;28;20666;-77
2021/08/24 01:13:51;;;;;;;15.67;11.10;;;;;;;;;;5079480;28;20282;-78
2021/08/24 01:16:23;;;;;;;17.40;11.67;;;;;;;;;;5078386;28;20304;-76
2021/08/24 01:18:57;;;;;;;16.07;12.47;;;;;;;;;;5075339;28;20231;-77
2021/08/24 01:21:40;;;;;;;17.67;11.77;;;;;;;;;;5081813;28;20632;-77
2021/08/24 01:24:14;;;;;;;15.43;11.40;;;;;;;;;;5088507;28;20281;-77
2021/08/24 01:26:45;;;;;;;18.23;12.07;;;;;;;;;;5075459;28;20291;-77
2021/08/24 01:29:23;;;;;;;19.00;11.87;;;;;;;;;;5081322;28;20218;-77
2021/08/24 01:31:57;;;;;;;16.93;11.83;;;;;;;;;;5092129;28;20294;-77
2021/08/24 01:34:37;;;;;;;19.97;11.93;;;;;;;;;;5085283;28;20210;-77
2021/08/24 01:37:07;;;;;;;15.57;11.70;;;;;;;;;;5090628;28;20285;-77
2021/08/24 01:39:39;;;;;;;17.57;11.70;;;;;;;;;;5094508;28;20285;-77
2021/08/24 01:42:12;;;;;;;17.60;12.10;;;;;;;;;;5090594;28;20632;-77
2021/08/24 01:44:42;;;;;;;22.80;12.80;;;;;;;;;;5088535;28;20590;-78
2021/08/24 01:47:14;;;;;;;16.27;12.33;;;;;;;;;;5094667;28;20209;-77
2021/08/24 01:49:43;;;;;;;18.43;12.63;;;;;;;;;;5095211;28;20317;-78
2021/08/24 01:52:16;;;;;;;17.73;12.87;;;;;;;;;;5088169;28;20679;-77
2021/08/24 01:54:44;;;;;;;19.43;13.50;;;;;;;;;;5084888;28;20281;-78
2021/08/24 01:57:13;;;;;;;16.83;13.30;;;;;;;;;;5083044;28;20233;-77
2021/08/24 01:59:43;;;;;;;18.37;13.40;;;;;;;;;;5079384;28;20205;-77
2021/08/24 02:02:13;;;;;;;17.67;13.37;;;;;;;;;;5085858;28;20218;-77
2021/08/24 02:04:43;;;;;;;19.30;14.07;;;;;;;;;;5093001;28;20293;-77
2021/08/24 02:07:12;;;;;;;23.03;13.80;;;;;;;;;;5094451;28;20286;-77
2021/08/24 02:09:42;;;;;;;18.33;13.47;;;;;;;;;;5093700;28;20253;-77
2021/08/24 02:12:10;;;;;;;18.13;13.77;;;;;;;;;;5093335;28;20285;-77
2021/08/24 02:14:39;;;;;;;18.97;13.73;;;;;;;;;;5073778;28;20203;-78
2021/08/24 02:17:07;;;;;;;18.57;13.97;;;;;;;;;;5080545;28;20238;-78
2021/08/24 02:19:39;;;;;;;21.87;14.23;;;;;;;;;;5087121;28;20202;-77
2021/08/24 02:22:10;;;;;;;20.60;14.07;;;;;;;;;;5085001;28;20675;-77
2021/08/24 02:24:40;;;;;;;22.07;14.27;;;;;;;;;;5074308;28;20641;-77
2021/08/24 02:27:10;;;;;;;20.03;14.87;;;;;;;;;;5084435;28;20286;-77
2021/08/24 02:29:37;;;;;;;20.87;14.30;;;;;;;;;;5092204;28;20310;-77
2021/08/24 02:32:08;;;;;;;23.87;14.70;;;;;;;;;;5094194;28;20263;-77
2021/08/24 02:34:41;;;;;;;19.47;14.10;;;;;;;;;;5081090;28;20234;-78
2021/08/24 02:37:11;;;;;;;19.03;14.57;;;;;;;;;;5078770;28;20285;-77
2021/08/24 02:39:43;;;;;;;19.10;15.10;;;;;;;;;;5093555;28;20290;-77
2021/08/24 02:42:14;;;;;;;20.67;15.27;;;;;;;;;;5077800;28;20199;-77
2021/08/24 02:44:43;;;;;;;20.73;14.47;;;;;;;;;;5073338;28;20235;-77
2021/08/24 02:47:11;;;;;;;20.30;15.00;;;;;;;;;;5081138;28;20290;-77
2021/08/24 02:49:38;;;;;;;21.47;15.33;;;;;;;;;;5093234;28;20257;-77
2021/08/24 02:52:07;;;;;;;20.07;14.70;;;;;;;;;;5080800;28;20250;-77
2021/08/24 02:54:36;;;;;;;23.73;15.47;;;;;;;;;;5073338;28;20230;-77
2021/08/24 02:57:06;;;;;;;20.93;15.03;;;;;;;;;;5073415;28;20317;-77
2021/08/24 02:59:33;;;;;;;19.90;14.40;;;;;;;;;;5073399;28;20199;-77
2021/08/24 03:02:01;;;;;;;17.40;14.13;;;;;;;;;;5072962;28;20318;-78
2021/08/24 03:04:29;;;;;;;21.97;14.60;;;;;;;;;;5072736;28;20199;-78
2021/08/24 03:06:59;;;;;;;20.53;14.23;;;;;;;;;;5073042;28;20282;-77
2021/08/24 03:09:28;;;;;;;18.63;14.13;;;;;;;;;;5073089;28;20317;-77
2021/08/24 03:11:58;;;;;;;15.23;13.03;;;;;;;;;;5072663;28;21041;-77
2021/08/24 03:14:29;;;;;;;19.70;13.87;;;;;;;;;;5089580;28;20285;-77
2021/08/24 03:17:00;;;;;;;18.77;14.53;;;;;;;;;;5064230;28;20634;-77
2021/08/24 03:19:29;;;;;;;19.23;13.50;;;;;;;;;;5078896;28;20649;-77
2021/08/24 03:21:58;;;;;;;19.53;14.67;;;;;;;;;;5079275;28;20294;-77
2021/08/24 03:24:26;;;;;;;20.33;14.30;;;;;;;;;;5073369;28;20286;-77
2021/08/24 03:26:53;;;;;;;19.97;14.80;;;;;;;;;;5080045;28;20285;-77
2021/08/24 03:29:22;;;;;;;21.37;15.67;;;;;;;;;;5092503;28;20307;-77
2021/08/24 03:31:52;;;;;;;23.03;16.00;;;;;;;;;;5092992;28;20202;-78
2021/08/24 03:34:20;;;;;;;22.43;15.80;;;;;;;;;;5091495;28;20285;-77
2021/08/24 03:36:47;;;;;;;23.67;17.00;;;;;;;;;;5091846;28;20639;-77
2021/08/24 03:39:14;;;;;;;22.60;18.03;;;;;;;;;;5093212;28;20218;-77
2021/08/24 03:41:42;;;;;;;23.37;17.77;;;;;;;;;;5092534;28;20456;-77
2021/08/24 03:44:09;;;;;;;31.03;18.37;;;;;;;;;;5092396;28;20529;-77
2021/08/24 03:46:36;;;;;;;25.67;18.00;;;;;;;;;;5080608;28;20207;-77
2021/08/24 03:49:05;;;;;;;25.83;18.73;;;;;;;;;;5072443;28;20241;-77
2021/08/24 03:51:32;;;;;;;26.33;18.50;;;;;;;;;;5077326;28;20227;-77
2021/08/24 03:53:59;;;;;;;25.70;19.17;;;;;;;;;;5072273;28;20302;-77
2021/08/24 03:56:26;;;;;;;27.47;19.17;;;;;;;;;;5080151;28;20638;-77
2021/08/24 03:58:54;;;;;;;25.57;18.77;;;;;;;;;;5072385;28;20205;-77
2021/08/24 04:01:21;;;;;;;26.27;19.07;;;;;;;;;;5091213;28;20285;-77
2021/08/24 04:03:48;;;;;;;27.03;19.50;;;;;;;;;;5092684;28;20292;-77
2021/08/24 04:06:17;;;;;;;23.10;18.83;;;;;;;;;;5087706;28;20213;-77
2021/08/24 04:08:44;;;;;;;27.27;19.00;;;;;;;;;;5085111;28;20282;-77
2021/08/24 04:11:11;;;;;;;23.70;19.17;;;;;;;;;;5073882;28;20675;-77
2021/08/24 04:13:39;;;;;;;27.70;20.40;;;;;;;;;;5078765;28;20286;-78
2021/08/24 04:16:07;;;;;;;27.00;19.87;;;;;;;;;;5072049;28;20306;-77
2021/08/24 04:18:34;;;;;;;25.67;19.83;;;;;;;;;;5084764;28;20282;-78
2021/08/24 04:21:01;;;;;;;26.33;20.37;;;;;;;;;;5092476;28;20289;-77
2021/08/24 04:23:30;;;;;;;28.47;20.43;;;;;;;;;;5091689;28;20708;-77
2021/08/24 04:25:59;;;;;;;26.77;19.87;;;;;;;;;;5074431;28;20246;-77
2021/08/24 04:28:26;;;;;;;28.30;20.20;;;;;;;;;;5080992;28;20196;-77
2021/08/24 04:30:54;;;;;;;28.30;21.10;;;;;;;;;;5077096;28;20318;-78
2021/08/24 04:33:22;;;;;;;33.30;21.60;;;;;;;;;;5075800;28;20196;-77
2021/08/24 04:35:51;;;;;;;28.17;20.83;;;;;;;;;;5084685;28;20547;-77
2021/08/24 04:38:18;;;;;;;26.47;20.47;;;;;;;;;;5072245;28;20199;-78
2021/08/24 04:40:47;;;;;;;27.53;21.03;;;;;;;;;;5071698;28;20280;-77
2021/08/24 04:43:14;;;;;;;24.90;20.43;;;;;;;;;;5071960;28;20584;-77
2021/08/24 04:45:41;;;;;;;29.00;21.83;;;;;;;;;;5080900;28;20289;-78
2021/08/24 04:48:09;;;;;;;27.40;20.53;;;;;;;;;;5091535;28;20293;-77
2021/08/24 04:50:36;;;;;;;28.03;21.20;;;;;;;;;;5092045;28;20652;-78
2021/08/24 04:53:03;;;;;;;29.20;21.53;;;;;;;;;;5084646;28;20241;-77
2021/08/24 04:55:31;;;;;;;28.50;21.80;;;;;;;;;;5071513;28;20303;-78
2021/08/24 04:58:02;;;;;;;30.27;22.23;;;;;;;;;;5077449;28;20201;-77
2021/08/24 05:00:29;;;;;;;27.00;21.80;;;;;;;;;;5092035;28;20248;-78
2021/08/24 05:02:56;;;;;;;29.03;21.90;;;;;;;;;;5076601;28;20306;-77
2021/08/24 05:05:24;;;;;;;28.73;21.53;;;;;;;;;;5075266;28;20273;-77
2021/08/24 05:07:51;;;;;;;27.13;21.50;;;;;;;;;;5090367;28;20325;-77
2021/08/24 05:10:19;;;;;;;28.80;22.23;;;;;;;;;;5091020;28;20225;-77
2021/08/24 05:12:46;;;;;;;29.47;22.43;;;;;;;;;;5082966;28;20635;-77
2021/08/24 05:15:15;;;;;;;35.33;22.97;;;;;;;;;;5072025;28;20648;-77
2021/08/24 05:17:42;;;;;;;34.03;23.47;;;;;;;;;;5071393;28;20231;-77
2021/08/24 05:20:09;;;;;;;30.43;23.23;;;;;;;;;;5075085;28;20222;-78
2021/08/24 05:22:37;;;;;;;34.57;24.00;;;;;;;;;;5091064;28;20241;-78
2021/08/24 05:25:04;;;;;;;35.73;24.53;;;;;;;;;;5081938;28;20293;-77
2021/08/24 05:27:32;;;;;;;33.77;24.43;;;;;;;;;;5071875;28;20282;-78
2021/08/24 05:30:01;;;;;;;32.27;24.37;;;;;;;;;;5094557;28;20229;-78
2021/08/24 05:32:30;;;;;;;34.00;24.60;;;;;;;;;;5079383;28;20258;-78
2021/08/24 05:34:57;;;;;;;31.73;24.33;;;;;;;;;;5094584;28;20199;-78
2021/08/24 05:37:24;;;;;;;30.80;23.30;;;;;;;;;;5094451;28;20279;-78
2021/08/24 05:39:52;;;;;;;30.87;23.93;;;;;;;;;;5084666;28;20698;-78
2021/08/24 05:42:19;;;;;;;29.70;22.77;;;;;;;;;;5081466;28;20285;-78
2021/08/24 05:44:46;;;;;;;32.13;23.40;;;;;;;;;;5094889;28;20676;-79
2021/08/24 05:47:13;;;;;;;33.40;22.70;;;;;;;;;;5094660;28;20285;-78
2021/08/24 05:49:42;;;;;;;29.73;23.20;;;;;;;;;;5079680;28;20305;-78
2021/08/24 05:52:10;;;;;;;31.30;22.40;;;;;;;;;;5081432;28;20237;-79
2021/08/24 05:54:38;;;;;;;26.50;21.53;;;;;;;;;;5078802;28;20760;-80
2021/08/24 05:57:06;;;;;;;30.07;22.53;;;;;;;;;;5090393;28;20231;-79
2021/08/24 05:59:33;;;;;;;30.33;22.07;;;;;;;;;;5080389;28;20222;-78
2021/08/24 06:02:00;;;;;;;26.70;21.07;;;;;;;;;;5085402;28;20305;-79
2021/08/24 06:04:29;;;;;;;28.40;21.33;;;;;;;;;;5094760;28;20237;-79
2021/08/24 06:06:57;;;;;;;26.10;21.83;;;;;;;;;;5082279;28;20745;-80
2021/08/24 06:09:24;;;;;;;29.90;21.60;;;;;;;;;;5094205;28;20297;-78
2021/08/24 06:11:52;;;;;;;27.17;21.20;;;;;;;;;;5078215;28;20215;-80
2021/08/24 06:14:21;;;;;;;27.07;21.10;;;;;;;;;;5073975;28;20554;-77
2021/08/24 06:16:54;;;;;;;27.50;22.27;;;;;;;;;;5085144;28;20226;-79
2021/08/24 06:19:21;;;;;;;24.60;21.03;;;;;;;;;;5093828;28;20198;-79
2021/08/24 06:21:49;;;;;;;31.03;21.70;;;;;;;;;;5093290;28;20255;-79
2021/08/24 06:24:18;;;;;;;28.90;21.37;;;;;;;;;;5090374;28;20309;-79
2021/08/24 06:26:45;;;;;;;26.93;21.03;;;;;;;;;;5073824;28;20226;-79
2021/08/24 06:29:12;;;;;;;25.07;20.67;;;;;;;;;;5074036;28;20291;-79
2021/08/24 06:31:41;;;;;;;26.10;20.60;;;;;;;;;;5093940;28;20226;-80
2021/08/24 06:34:09;;;;;;;24.23;21.43;;;;;;;;;;5089135;28;20191;-79
2021/08/24 06:36:38;;;;;;;28.83;22.27;;;;;;;;;;5081483;28;20294;-79
2021/08/24 06:39:06;;;;;;;27.93;20.43;;;;;;;;;;5094046;28;20198;-80
2021/08/24 06:41:36;;;;;;;28.03;21.23;;;;;;;;;;5093742;28;20587;-80
2021/08/24 06:44:04;;;;;;;29.33;21.47;;;;;;;;;;5092636;28;20199;-80
2021/08/24 06:46:31;;;;;;;28.53;21.70;;;;;;;;;;5083452;28;20302;-80
2021/08/24 06:48:58;;;;;;;28.37;20.83;;;;;;;;;;5073011;28;20225;-80
2021/08/24 06:51:25;;;;;;;26.43;21.63;;;;;;;;;;5073815;28;20299;-79
2021/08/24 06:53:52;;;;;;;29.47;21.93;;;;;;;;;;5093406;28;20302;-80
2021/08/24 06:56:20;;;;;;;27.10;21.53;;;;;;;;;;5093653;28;20427;-79
2021/08/24 06:58:48;;;;;;;27.63;21.57;;;;;;;;;;5093482;28;20288;-79
2021/08/24 07:01:17;;;;;;;25.70;21.60;;;;;;;;;;5078229;28;20281;-79
2021/08/24 07:03:44;;;;;;;27.67;21.10;;;;;;;;;;5078778;28;20753;-80
2021/08/24 07:06:11;;;;;;;31.03;21.83;;;;;;;;;;5072914;28;20211;-80
2021/08/24 07:08:39;;;;;;;26.87;21.27;;;;;;;;;;5084952;28;20202;-79
2021/08/24 07:11:06;;;;;;;27.67;20.67;;;;;;;;;;5092028;28;20704;-80
2021/08/24 07:13:33;;;;;;;30.67;21.67;;;;;;;;;;5092429;28;20233;-79
2021/08/24 07:16:02;;;;;;;31.13;21.93;;;;;;;;;;5093181;28;20706;-80
2021/08/24 07:18:29;;;;;;;28.67;21.00;;;;;;;;;;5086573;28;20202;-79
2021/08/24 07:20:56;;;;;;;26.60;21.97;;;;;;;;;;5087165;28;20285;-80
2021/08/24 07:23:24;;;;;;;25.03;21.33;;;;;;;;;;5082062;28;20203;-79
2021/08/24 07:25:51;;;;;;;27.87;21.13;;;;;;;;;;5072771;28;20667;-79
2021/08/24 07:28:18;;;;;;;24.53;21.07;;;;;;;;;;5087757;28;20281;-80
2021/08/24 07:30:48;;;;;;;24.90;21.70;;;;;;;;;;5072671;28;20305;-80
2021/08/24 07:33:17;;;;;;;27.50;21.20;;;;;;;;;;5090896;28;20210;-79
2021/08/24 07:35:47;;;;;;;26.07;21.17;;;;;;;;;;5087681;28;20223;-79
2021/08/24 07:38:14;;;;;;;25.77;21.13;;;;;;;;;;5079921;28;20202;-79
2021/08/24 07:40:41;;;;;;;29.27;20.97;;;;;;;;;;5088674;28;20188;-79
2021/08/24 07:43:08;;;;;;;27.03;19.93;;;;;;;;;;5082063;28;20666;-79
2021/08/24 07:45:36;;;;;;;24.77;20.53;;;;;;;;;;5085166;28;20286;-79
2021/08/24 07:48:03;;;;;;;25.03;19.73;;;;;;;;;;5081140;28;20202;-79
2021/08/24 07:50:32;;;;;;;21.93;19.50;;;;;;;;;;5084082;28;20309;-79
2021/08/24 07:52:59;;;;;;;25.13;20.17;;;;;;;;;;5073542;28;20221;-79
2021/08/24 07:55:26;;;;;;;25.50;20.37;;;;;;;;;;5079779;28;20234;-79
2021/08/24 07:57:53;;;;;;;24.57;20.17;;;;;;;;;;5076130;28;20281;-79
2021/08/24 08:00:21;;;;;;;22.70;18.93;;;;;;;;;;5092213;28;20648;-79
2021/08/24 08:02:48;;;;;;;24.83;19.67;;;;;;;;;;5085051;28;20301;-80
2021/08/24 08:05:17;;;;;;;23.43;18.63;;;;;;;;;;5079536;28;20286;-79
2021/08/24 08:07:45;;;;;;;23.30;18.47;;;;;;;;;;5081130;28;20202;-80
2021/08/24 08:10:13;;;;;;;22.40;18.13;;;;;;;;;;5084118;28;20286;-80
2021/08/24 08:12:40;;;;;;;22.50;17.53;;;;;;;;;;5079601;28;20229;-79
2021/08/24 08:15:10;;;;;;;20.23;17.30;;;;;;;;;;5077459;28;20285;-79
2021/08/24 08:17:37;;;;;;;20.33;17.53;;;;;;;;;;5074027;28;20748;-79
2021/08/24 08:20:05;;;;;;;20.20;16.90;;;;;;;;;;5079801;28;20286;-80
2021/08/24 08:22:32;;;;;;;21.97;16.60;;;;;;;;;;5072430;28;20640;-79
2021/08/24 08:25:01;;;;;;;19.40;15.97;;;;;;;;;;5079591;28;20602;-80
2021/08/24 08:27:28;;;;;;;19.77;16.95;;;;;;;;;;5078412;28;20230;-80
2021/08/24 08:29:55;;;;;;;18.77;16.60;;;;;;;;;;5072147;28;20458;-80
2021/08/24 08:32:24;;;;;;;18.70;16.63;;;;;;;;;;5076659;28;20306;-79
2021/08/24 08:34:52;;;;;;;18.98;16.75;;;;;;;;;;5089435;28;20639;-80
2021/08/24 08:37:20;;;;;;;20.70;16.80;;;;;;;;;;5083891;28;20210;-79
2021/08/24 08:39:47;;;;;;;18.67;16.38;;;;;;;;;;5071981;28;20226;-80
2021/08/24 08:42:27;;;;;;;19.35;16.85;;;;;;;;;;5092581;28;20195;-80
2021/08/24 08:44:57;;;;;;;18.98;15.35;;;;;;;;;;5091976;28;20282;-79
2021/08/24 08:47:32;;;;;;;17.40;14.40;;;;;;;;;;5086045;28;20249;-80
2021/08/24 08:50:03;;;;;;;17.45;14.80;;;;;;;;;;5055724;28;20207;-80
2021/08/24 08:52:34;;;;;;;17.83;14.18;;;;;;;;;;5074758;28;20306;-80
2021/08/24 08:55:05;;;;;;;17.48;15.00;;;;;;;;;;5087904;28;20198;-80
2021/08/24 08:57:36;;;;;;;16.77;14.57;;;;;;;;;;5072156;28;20558;-80
2021/08/24 09:00:06;;;;;;;16.23;14.00;;;;;;;;;;5076563;28;20678;-79
2021/08/24 09:02:38;;;;;;;17.17;14.13;;;;;;;;;;5074219;28;20245;-77
2021/08/24 09:05:07;;;;;;;16.80;14.18;;;;;;;;;;5092381;28;20285;-78
2021/08/24 09:07:38;;;;;;;19.63;14.95;;;;;;;;;;5095471;28;20241;-79
2021/08/24 09:10:06;;;;;;;17.60;14.75;;;;;;;;;;5094141;28;20198;-80
2021/08/24 09:12:44;;;;;;;15.70;13.98;;;;;;;;;;5095124;28;20252;-77
2021/08/24 09:15:15;;;;;;;14.80;13.32;;;;;;;;;;5094909;28;20237;-79
2021/08/24 09:17:43;;;;;;;15.15;13.52;;;;;;;;;;5095209;28;20293;-78
2021/08/24 09:20:13;;;;;;;15.73;13.05;;;;;;;;;;5095511;28;20237;-78
2021/08/24 09:22:43;;;;;;;17.40;13.77;;;;;;;;;;5077312;28;20195;-78
2021/08/24 09:25:13;;;;;;;17.00;13.43;;;;;;;;;;5075873;28;20730;-79
2021/08/24 09:27:45;;;;;;;15.93;13.52;;;;;;;;;;5075542;28;20238;-78
2021/08/24 09:30:12;;;;;;;14.85;12.88;;;;;;;;;;5084270;28;20281;-78
2021/08/24 09:32:40;;;;;;;15.68;13.60;;;;;;;;;;5093467;28;20604;-79
2021/08/24 09:35:11;;;;;;;15.52;13.93;;;;;;;;;;5095561;28;20226;-79
2021/08/24 09:37:40;;;;;;;16.02;14.43;;;;;;;;;;5093775;28;20230;-78
2021/08/24 09:40:09;;;;;;;16.13;14.43;;;;;;;;;;5095598;28;20205;-79
2021/08/24 09:42:37;;;;;;;16.13;14.45;;;;;;;;;;5088676;28;20715;-80
2021/08/24 09:45:08;;;;;;;17.65;15.57;;;;;;;;;;5093538;28;20281;-79
2021/08/24 09:47:36;;;;;;;17.25;15.48;;;;;;;;;;5093771;28;20230;-79
2021/08/24 09:50:06;;;;;;;16.40;14.85;;;;;;;;;;5075101;28;20293;-80
2021/08/24 09:52:35;;;;;;;16.88;15.00;;;;;;;;;;5074661;28;20218;-79
2021/08/24 09:55:05;;;;;;;15.88;13.80;;;;;;;;;;5076030;28;20291;-79
2021/08/24 09:57:34;;;;;;;14.38;12.98;;;;;;;;;;5093944;28;20245;-79
2021/08/24 10:00:02;;;;;;;14.77;13.23;;;;;;;;;;5094585;28;20226;-80
2021/08/24 10:02:36;;;;;;;15.07;13.57;;;;;;;;;;5093949;28;20297;-79
2021/08/24 10:05:04;;;;;;;13.30;11.93;;;;;;;;;;5090721;28;20586;-79
2021/08/24 10:07:33;;;;;;;13.93;12.52;;;;;;;;;;5075723;28;20195;-79
2021/08/24 10:10:00;;;;;;;13.77;11.77;;;;;;;;;;5073744;28;20730;-79
2021/08/24 10:12:29;;;;;;;14.00;12.48;;;;;;;;;;5076572;28;20309;-79
2021/08/24 10:14:56;;;;;;;13.93;12.50;;;;;;;;;;5072629;28;20242;-79
2021/08/24 10:17:29;;;;;;;13.35;12.15;;;;;;;;;;5076291;28;20203;-79
2021/08/24 10:19:59;;;;;;;14.23;12.82;;;;;;;;;;5072219;28;20721;-79
2021/08/24 10:22:28;;;;;;;13.82;12.52;;;;;;;;;;5079353;28;20190;-79
2021/08/24 10:24:57;;;;;;;13.02;11.73;;;;;;;;;;5075463;28;20234;-79
2021/08/24 10:27:25;;;;;;;12.30;11.20;;;;;;;;;;5081686;28;20206;-79
2021/08/24 10:29:54;;;;;;;12.82;11.50;;;;;;;;;;5076220;28;20306;-79
2021/08/24 10:32:24;;;;;;;12.27;11.07;;;;;;;;;;5075258;28;20302;-79
2021/08/24 10:34:51;;;;;;;12.15;10.90;;;;;;;;;;5082411;28;20285;-79
2021/08/24 10:37:33;;;;;;;14.27;12.80;;;;;;;;;;5074615;28;20633;-79
2021/08/24 10:40:15;;;;;;;11.65;10.15;;;;;;;;;;5081548;28;20558;-79
2021/08/24 10:42:59;;;;;;;11.55;10.25;;;;;;;;;;5091868;28;20256;-79
2021/08/24 10:45:28;;;;;;;11.10;10.00;;;;;;;;;;5067708;28;20202;-79
2021/08/24 10:47:57;;;;;;;11.85;10.00;;;;;;;;;;5075115;28;20622;-79
2021/08/24 10:50:26;;;;;;;12.77;10.45;;;;;;;;;;5073715;28;20206;-79
2021/08/24 10:52:59;;;;;;;10.43;9.35;;;;;;;;;;5082639;28;20748;-79
2021/08/24 10:55:28;;;;;;;8.80;8.00;;;;;;;;;;5077613;28;20195;-79
2021/08/24 10:58:05;;;;;;;10.25;9.15;;;;;;;;;;5093633;28;20286;-79
2021/08/24 11:00:39;;;;;;;13.65;10.02;;;;;;;;;;5060541;28;20202;-79
2021/08/24 11:03:13;;;;;;;10.55;8.75;;;;;;;;;;5075847;28;20214;-79
2021/08/24 11:05:46;;;;;;;9.05;8.23;;;;;;;;;;5073293;28;20290;-79
2021/08/24 11:08:21;;;;;;;10.30;9.02;;;;;;;;;;5081705;28;20290;-79
2021/08/24 11:10:50;;;;;;;8.55;7.68;;;;;;;;;;5086658;28;20229;-79
2021/08/24 11:13:29;;;;;;;8.48;7.68;;;;;;;;;;5074302;28;20254;-78
2021/08/24 11:16:00;;;;;;;8.43;6.97;;;;;;;;;;5074002;28;20575;-79
2021/08/24 11:18:32;;;;;;;8.68;7.78;;;;;;;;;;5073893;28;20233;-79
2021/08/24 11:21:03;;;;;;;9.27;7.13;;;;;;;;;;5073506;28;20282;-78
2021/08/24 11:23:40;;;;;;;8.63;6.20;;;;;;;;;;5075611;28;20294;-79
2021/08/24 11:26:14;;;;;;;7.30;6.55;;;;;;;;;;5073334;28;20213;-79
2021/08/24 11:28:46;;;;;;;7.38;5.93;;;;;;;;;;5081422;28;20284;-79
2021/08/24 11:31:15;;;;;;;6.40;5.10;;;;;;;;;;5090267;28;20289;-79
2021/08/24 11:33:46;;;;;;;6.82;5.68;;;;;;;;;;5072164;28;20341;-79
2021/08/24 11:36:16;;;;;;;5.93;5.25;;;;;;;;;;5088486;28;20234;-78
2021/08/24 11:38:44;;;;;;;6.20;5.60;;;;;;;;;;5081610;28;20293;-79
2021/08/24 11:41:13;;;;;;;8.25;5.10;;;;;;;;;;5091021;28;20281;-79
2021/08/24 11:43:45;;;;;;;6.65;4.82;;;;;;;;;;5081525;28;20231;-79
2021/08/24 11:46:14;;;;;;;6.18;5.57;;;;;;;;;;5088043;28;20209;-79
2021/08/24 11:48:43;;;;;;;6.35;5.65;;;;;;;;;;5077252;28;20291;-79
2021/08/24 11:51:16;;;;;;;5.38;4.30;;;;;;;;;;5076272;28;20194;-79
2021/08/24 11:53:44;;;;;;;4.07;3.67;;;;;;;;;;5087074;28;20214;-78
2021/08/24 11:56:13;;;;;;;4.22;3.67;;;;;;;;;;5084042;28;20663;-80
2021/08/24 11:58:46;;;;;;;5.88;3.78;;;;;;;;;;5091502;28;20194;-79
2021/08/24 12:01:18;;;;;;;5.68;3.60;;;;;;;;;;5072173;28;20302;-79
2021/08/24 12:03:49;;;;;;;5.18;3.65;;;;;;;;;;5076332;28;20222;-79
2021/08/24 12:06:18;;;;;;;7.72;4.35;;;;;;;;;;5091419;28;20238;-79
2021/08/24 12:08:47;;;;;;;5.22;4.18;;;;;;;;;;5071880;28;20302;-79
2021/08/24 12:11:15;;;;;;;4.13;3.53;;;;;;;;;;5072258;28;20709;-78
2021/08/24 12:13:46;;;;;;;5.72;3.45;;;;;;;;;;5082398;28;20190;-79
2021/08/24 12:16:28;;;;;;;4.00;3.60;;;;;;;;;;5091711;28;20214;-79
2021/08/24 12:19:10;;;;;;;3.50;3.20;;;;;;;;;;5079378;28;20194;-79
2021/08/24 12:21:47;;;;;;;3.80;3.00;;;;;;;;;;5071844;28;20278;-78
2021/08/24 12:24:30;;;;;;;3.83;2.80;;;;;;;;;;5071146;28;20290;-79
2021/08/24 12:27:29;;;;;;;4.00;3.13;;;;;;;;;;5089265;28;20211;-79
2021/08/24 12:30:07;;;;;;;4.10;3.00;;;;;;;;;;5077402;28;20294;-78
2021/08/24 12:32:55;;;;;;;3.85;2.90;;;;;;;;;;5071753;28;20929;-79
2021/08/24 12:35:30;;;;;;;4.30;2.70;;;;;;;;;;5049874;28;20202;-79
2021/08/24 12:37:58;;;;;;;3.20;2.90;;;;;;;;;;5055725;28;20254;-79
2021/08/24 12:40:33;;;;;;;3.10;2.80;;;;;;;;;;5070231;28;20278;-79
2021/08/24 12:43:15;;;;;;;3.67;2.83;;;;;;;;;;5066008;28;20222;-79
2021/08/24 12:45:43;;;;;;;3.83;2.65;;;;;;;;;;5053469;28;20286;-79
2021/08/24 12:48:16;;;;;;;3.15;2.85;;;;;;;;;;5062745;28;20288;-79
2021/08/24 12:51:03;;;;;;;2.83;2.45;;;;;;;;;;5073456;28;20288;-79
2021/08/24 12:53:42;;;;;;;3.13;2.70;;;;;;;;;;5060773;28;20219;-79
2021/08/24 12:56:09;;;;;;;3.08;2.30;;;;;;;;;;5053110;28;20238;-79
2021/08/24 12:58:47;;;;;;;3.03;2.58;;;;;;;;;;5053574;28;20294;-79
2021/08/24 13:01:17;;;;;;;3.72;2.30;;;;;;;;;;5053073;28;20286;-79
2021/08/24 13:03:54;;;;;;;2.58;2.10;;;;;;;;;;5053632;28;20192;-79
2021/08/24 13:06:23;;;;;;;3.05;2.38;;;;;;;;;;5047008;28;20282;-79
2021/08/24 13:08:52;;;;;;;3.38;2.47;;;;;;;;;;5063260;28;20209;-79
2021/08/24 13:11:33;;;;;;;4.38;2.25;;;;;;;;;;5063697;28;20283;-79
2021/08/24 13:14:02;;;;;;;4.50;2.60;;;;;;;;;;5094941;28;20772;-79
2021/08/24 13:16:32;;;;;;;2.92;2.63;;;;;;;;;;5090402;28;20209;-79
2021/08/24 13:19:00;;;;;;;2.30;2.10;;;;;;;;;;5074849;28;20206;-79
2021/08/24 13:21:30;;;;;;;5.55;2.70;;;;;;;;;;5074904;28;20199;-79
2021/08/24 13:24:00;;;;;;;2.47;2.20;;;;;;;;;;5090128;28;20194;-78
2021/08/24 13:26:29;;;;;;;5.28;2.35;;;;;;;;;;5054919;28;20630;-78
2021/08/24 13:28:58;;;;;;;4.68;2.55;;;;;;;;;;5055158;28;20298;-78
2021/08/24 13:31:28;;;;;;;3.28;2.28;;;;;;;;;;5061447;28;20221;-78
2021/08/24 13:33:58;;;;;;;2.83;2.63;;;;;;;;;;5086517;28;20808;-79
2021/08/24 13:36:29;;;;;;;4.35;2.53;;;;;;;;;;5084528;28;20290;-79
2021/08/24 13:38:57;;;;;;;2.35;2.15;;;;;;;;;;5094754;28;20297;-80
2021/08/24 13:41:29;;;;;;;2.45;2.25;;;;;;;;;;5095158;28;20285;-78
2021/08/24 13:43:57;;;;;;;3.20;2.20;;;;;;;;;;5089817;28;20757;-79
2021/08/24 13:46:27;;;;;;;2.80;2.42;;;;;;;;;;5074800;28;20203;-79
2021/08/24 13:48:54;;;;;;;3.10;2.20;;;;;;;;;;5082544;28;20697;-79
2021/08/24 13:51:23;;;;;;;2.15;1.95;;;;;;;;;;5094349;28;20289;-79
2021/08/24 13:53:55;;;;;;;2.22;2.00;;;;;;;;;;5080451;28;20233;-79
2021/08/24 13:56:31;;;;;;;2.65;2.10;;;;;;;;;;5092411;28;20230;-79
2021/08/24 13:58:59;;;;;;;3.38;2.15;;;;;;;;;;5093313;28;20289;-78
2021/08/24 14:01:28;;;;;;;2.90;2.00;;;;;;;;;;5094471;28;20313;-78
2021/08/24 14:03:56;;;;;;;5.43;2.30;;;;;;;;;;5088869;28;20195;-79
2021/08/24 14:06:29;;;;;;;3.38;2.42;;;;;;;;;;5078608;28;20278;-78
2021/08/24 14:08:57;;;;;;;2.50;2.30;;;;;;;;;;5074399;28;20203;-79
2021/08/24 14:11:25;;;;;;;2.83;2.00;;;;;;;;;;5074622;28;20199;-78
2021/08/24 14:13:53;;;;;;;2.22;2.03;;;;;;;;;;5080652;28;20305;-79
2021/08/24 14:16:31;;;;;;;2.42;2.22;;;;;;;;;;5083730;28;20235;-79
2021/08/24 14:19:00;;;;;;;2.50;2.10;;;;;;;;;;5073903;28;20199;-79
2021/08/24 14:21:30;;;;;;;3.33;2.08;;;;;;;;;;5078999;28;20567;-79
2021/08/24 14:24:00;;;;;;;2.20;2.00;;;;;;;;;;5093267;28;20251;-78
2021/08/24 14:26:28;;;;;;;3.35;2.28;;;;;;;;;;5073802;28;20286;-79
2021/08/24 14:28:56;;;;;;;4.00;2.50;;;;;;;;;;5087760;28;20289;-78
2021/08/24 14:31:24;;;;;;;3.20;2.50;;;;;;;;;;5093958;28;20209;-79
2021/08/24 14:33:53;;;;;;;4.40;2.30;;;;;;;;;;5093399;28;20607;-79
2021/08/24 14:36:23;;;;;;;3.83;2.40;;;;;;;;;;5091937;28;20278;-79
2021/08/24 14:38:54;;;;;;;3.13;2.70;;;;;;;;;;5094023;28;20281;-79